createdAt,value
2018-05-04T00:00:13.041Z,75.60
2018-05-04T00:02:39.611Z,76.30
2018-05-04T00:05:06.726Z,77.50
2018-05-04T00:07:33.011Z,77.50
2018-05-04T00:09:59.319Z,77.40
2018-05-04T00:12:25.623Z,77.60
2018-05-04T00:14:51.898Z,78.00
2018-05-04T00:17:18.926Z,80.60
2018-05-04T00:19:45.279Z,80.60
2018-05-04T00:22:12.330Z,81.10
2018-05-04T00:24:39.390Z,81.10
2018-05-04T00:27:06.423Z,82.20
2018-05-04T00:29:33.450Z,82.90
2018-05-04T00:31:59.749Z,82.80
2018-05-04T00:34:26.036Z,83.40
2018-05-04T00:36:53.078Z,84.90
2018-05-04T00:39:20.123Z,84.60
2018-05-04T00:41:47.135Z,85.00
2018-05-04T00:44:13.440Z,85.10
2018-05-04T00:46:39.725Z,84.10
2018-05-04T00:49:06.024Z,85.60
2018-05-04T00:51:32.305Z,85.40
2018-05-04T00:54:11.610Z,87.60
2018-05-04T00:56:37.895Z,87.70
2018-05-04T00:59:04.205Z,87.70
2018-05-04T01:01:31.233Z,87.60
2018-05-04T01:03:57.547Z,87.80
2018-05-04T01:06:23.838Z,87.60
2018-05-04T01:08:50.149Z,88.30
2018-05-04T01:11:17.167Z,90.20
2018-05-04T01:13:43.467Z,90.20
2018-05-04T01:16:09.791Z,90.30
2018-05-04T01:18:36.121Z,90.20
2018-05-04T01:21:02.421Z,90.50
2018-05-04T01:23:28.715Z,90.30
2018-05-04T01:25:55.019Z,90.20
2018-05-04T01:28:21.319Z,90.10
2018-05-04T01:30:47.645Z,90.20
2018-05-04T01:33:13.938Z,90.60
2018-05-04T01:35:40.268Z,90.80
2018-05-04T01:38:06.560Z,90.50
2018-05-04T01:40:32.862Z,90.70
2018-05-04T01:42:59.901Z,91.10
2018-05-04T01:45:26.937Z,91.00
2018-05-04T01:47:53.212Z,90.80
2018-05-04T01:50:19.518Z,91.70
2018-05-04T01:52:45.798Z,91.30
2018-05-04T01:55:12.106Z,90.80
2018-05-04T01:57:38.388Z,90.90
2018-05-04T02:00:04.971Z,91.00
2018-05-04T02:02:31.299Z,91.40
2018-05-04T02:04:57.667Z,91.20
2018-05-04T02:07:23.977Z,91.20
2018-05-04T02:09:50.274Z,91.60
2018-05-04T02:12:16.543Z,91.50
2018-05-04T02:14:42.845Z,91.20
2018-05-04T02:17:09.118Z,91.50
2018-05-04T02:19:35.419Z,91.20
2018-05-04T02:22:01.691Z,91.00
2018-05-04T02:24:27.983Z,91.50
2018-05-04T02:26:54.258Z,92.30
2018-05-04T02:29:20.552Z,92.40
2018-05-04T02:31:46.838Z,92.80
2018-05-04T02:34:13.147Z,93.10
2018-05-04T02:36:39.445Z,93.10
2018-05-04T02:39:05.754Z,93.20
2018-05-04T02:41:32.042Z,93.60
2018-05-04T02:43:59.071Z,95.10
2018-05-04T02:46:26.101Z,95.40
2018-05-04T02:48:52.398Z,95.40
2018-05-04T02:51:18.658Z,95.80
2018-05-04T02:53:44.955Z,95.60
2018-05-04T02:56:11.232Z,96.40
2018-05-04T02:58:37.506Z,96.40
2018-05-04T03:01:03.819Z,96.80
2018-05-04T03:03:30.851Z,97.40
2018-05-04T03:05:57.134Z,97.30
2018-05-04T03:08:23.418Z,97.30
2018-05-04T03:10:49.698Z,97.60
2018-05-04T03:13:15.962Z,97.60
2018-05-04T03:15:42.231Z,97.80
2018-05-04T03:18:08.552Z,97.70
2018-05-04T03:20:35.551Z,98.30
2018-05-04T03:23:01.834Z,98.30
2018-05-04T03:25:28.867Z,98.50
2018-05-04T03:27:55.123Z,98.50
2018-05-04T03:30:21.423Z,98.80
2018-05-04T03:32:47.694Z,98.90
2018-05-04T03:35:13.984Z,99.10
2018-05-04T03:37:40.268Z,98.90
2018-05-04T03:40:08.293Z,98.60
2018-05-04T03:42:34.614Z,98.90
2018-05-04T03:45:00.889Z,98.60
2018-05-04T03:47:27.144Z,99.20
2018-05-04T03:49:53.438Z,99.40
2018-05-04T03:52:19.756Z,99.70
2018-05-04T03:54:46.819Z,99.90
2018-05-04T03:57:25.994Z,99.90
2018-05-04T04:00:04.538Z,99.90
2018-05-04T04:02:43.141Z,99.90
2018-05-04T04:05:09.453Z,99.90
2018-05-04T04:07:35.742Z,99.90
2018-05-04T04:10:02.082Z,99.70
2018-05-04T04:12:28.463Z,99.20
2018-05-04T04:14:54.705Z,99.20
2018-05-04T04:17:21.106Z,99.20
2018-05-04T04:19:47.386Z,99.90
2018-05-04T04:22:14.414Z,99.90
2018-05-04T04:24:40.695Z,99.90
2018-05-04T04:27:06.957Z,99.90
2018-05-04T04:29:33.254Z,99.90
2018-05-04T04:31:59.552Z,99.90
2018-05-04T04:34:26.566Z,99.90
2018-05-04T04:36:52.842Z,99.90
2018-05-04T04:39:19.145Z,99.90
2018-05-04T04:41:45.410Z,99.80
2018-05-04T04:44:11.704Z,99.60
2018-05-04T04:46:37.978Z,99.90
2018-05-04T04:49:04.257Z,99.50
2018-05-04T04:51:30.574Z,99.30
2018-05-04T04:53:56.870Z,99.10
2018-05-04T04:56:23.155Z,99.50
2018-05-04T04:58:49.410Z,99.30
2018-05-04T05:01:16.450Z,98.70
2018-05-04T05:03:43.463Z,98.40
2018-05-04T05:06:09.746Z,98.30
2018-05-04T05:08:36.018Z,98.10
2018-05-04T05:11:02.297Z,98.10
2018-05-04T05:13:28.638Z,97.80
2018-05-04T05:15:54.868Z,97.80
2018-05-04T05:18:21.157Z,97.40
2018-05-04T05:20:47.470Z,97.40
2018-05-04T05:23:13.749Z,96.70
2018-05-04T05:25:40.031Z,96.40
2018-05-04T05:28:06.321Z,96.10
2018-05-04T05:30:32.658Z,95.40
2018-05-04T05:32:58.915Z,95.00
2018-05-04T05:35:25.207Z,94.80
2018-05-04T05:37:51.505Z,95.10
2018-05-04T05:40:18.567Z,94.60
2018-05-04T05:42:45.607Z,94.40
2018-05-04T05:45:12.626Z,93.90
2018-05-04T05:47:38.973Z,93.90
2018-05-04T05:50:05.333Z,93.90
2018-05-04T05:52:31.629Z,93.30
2018-05-04T05:54:57.902Z,93.20
2018-05-04T05:57:24.201Z,92.80
2018-05-04T05:59:50.462Z,92.30
2018-05-04T06:02:16.734Z,91.90
2018-05-04T06:04:43.039Z,90.80
2018-05-04T06:07:09.318Z,90.00
2018-05-04T06:09:36.362Z,84.60
2018-05-04T06:12:02.705Z,84.60
2018-05-04T06:14:29.721Z,82.20
2018-05-04T06:16:56.022Z,82.30
2018-05-04T06:19:23.002Z,78.90
2018-05-04T06:21:49.295Z,78.80
2018-05-04T06:24:15.644Z,75.60
2018-05-04T06:26:41.944Z,74.20
2018-05-04T06:29:08.257Z,73.30
2018-05-04T06:31:35.326Z,74.30
2018-05-04T06:34:03.279Z,72.70
2018-05-04T06:36:29.626Z,72.70
2018-05-04T06:38:56.075Z,70.00
2018-05-04T06:41:22.372Z,66.70
2018-05-04T06:43:49.408Z,65.10
2018-05-04T06:46:16.489Z,61.80
2018-05-04T06:48:42.891Z,61.70
2018-05-04T06:51:09.157Z,56.10
2018-05-04T06:53:35.558Z,53.70
2018-05-04T06:56:02.594Z,38.40
2018-05-04T06:58:28.853Z,37.60
2018-05-04T07:00:55.202Z,34.00
2018-05-04T07:03:22.114Z,31.10
2018-05-04T07:05:49.134Z,30.60
2018-05-04T07:08:16.192Z,29.70
2018-05-04T07:10:43.308Z,29.40
2018-05-04T07:13:09.621Z,28.10
2018-05-04T07:15:36.010Z,26.70
2018-05-04T07:18:02.421Z,25.90
2018-05-04T07:20:28.694Z,25.60
2018-05-04T07:22:55.710Z,22.40
2018-05-04T07:25:21.993Z,22.30
2018-05-04T07:27:48.256Z,22.50
2018-05-04T07:30:14.594Z,21.40
2018-05-04T07:32:40.842Z,20.90
2018-05-04T07:35:07.205Z,20.60
2018-05-04T07:37:33.542Z,21.40
2018-05-04T07:39:59.814Z,23.80
2018-05-04T07:42:26.149Z,24.20
2018-05-04T07:44:52.641Z,22.60
2018-05-04T07:47:18.935Z,23.10
2018-05-04T07:49:45.290Z,24.80
2018-05-04T07:52:11.602Z,23.80
2018-05-04T07:54:37.918Z,23.70
2018-05-04T07:57:04.202Z,24.00
2018-05-04T07:59:30.482Z,23.70
2018-05-04T08:01:57.758Z,23.60
2018-05-04T08:04:24.064Z,24.50
2018-05-04T08:06:50.420Z,25.30
2018-05-04T08:09:16.723Z,24.60
2018-05-04T08:11:43.017Z,25.30
2018-05-04T08:14:09.297Z,25.40
2018-05-04T08:16:36.348Z,25.10
2018-05-04T08:19:03.408Z,24.10
2018-05-04T08:21:30.444Z,23.10
2018-05-04T08:26:38.232Z,24.20
2018-05-04T08:29:04.529Z,24.20
2018-05-04T08:31:31.851Z,25.00
2018-05-04T08:33:58.142Z,25.60
2018-05-04T08:36:24.458Z,24.40
2018-05-04T08:38:50.755Z,23.70
2018-05-04T08:41:17.075Z,24.10
2018-05-04T08:43:43.499Z,24.20
2018-05-04T08:46:10.568Z,24.00
2018-05-04T08:48:36.895Z,23.80
2018-05-04T08:51:03.285Z,23.80
2018-05-04T08:53:29.570Z,24.40
2018-05-04T08:55:55.898Z,24.50
2018-05-04T08:58:22.190Z,24.80
2018-05-04T09:00:48.472Z,25.20
2018-05-04T09:03:14.790Z,24.90
2018-05-04T09:05:41.151Z,26.30
2018-05-04T09:08:07.403Z,26.00
2018-05-04T09:10:34.742Z,22.40
2018-05-04T09:13:01.027Z,20.00
2018-05-04T09:15:27.327Z,20.30
2018-05-04T09:17:53.597Z,21.60
2018-05-04T09:20:19.919Z,22.20
2018-05-04T09:22:46.187Z,20.80
2018-05-04T09:25:12.523Z,18.70
2018-05-04T09:27:38.806Z,18.50
2018-05-04T09:30:05.140Z,19.80
2018-05-04T09:32:31.431Z,19.60
2018-05-04T09:34:57.714Z,19.40
2018-05-04T09:37:24.112Z,16.50
2018-05-04T09:39:50.380Z,14.40
2018-05-04T09:42:16.660Z,16.00
2018-05-04T09:44:43.695Z,18.20
2018-05-04T09:47:10.135Z,18.10
2018-05-04T09:49:37.342Z,17.00
2018-05-04T09:52:03.694Z,15.20
2018-05-04T09:54:30.002Z,15.60
2018-05-04T09:56:56.331Z,15.80
2018-05-04T09:59:22.666Z,15.00
2018-05-04T10:01:49.892Z,15.20
2018-05-04T10:04:16.227Z,16.10
2018-05-04T10:06:42.624Z,15.10
2018-05-04T10:09:08.964Z,16.10
2018-05-04T10:11:35.211Z,18.00
2018-05-04T10:14:02.262Z,18.10
2018-05-04T10:16:28.569Z,17.80
2018-05-04T10:18:54.931Z,17.60
2018-05-04T10:21:21.247Z,15.80
2018-05-04T10:23:48.298Z,15.40
2018-05-04T10:26:14.635Z,15.50
2018-05-04T10:28:40.945Z,16.10
2018-05-04T10:31:07.222Z,16.00
2018-05-04T10:33:33.532Z,16.60
2018-05-04T10:35:59.914Z,18.70
2018-05-04T10:38:26.233Z,19.90
2018-05-04T10:40:52.521Z,19.50
2018-05-04T10:43:18.866Z,20.00
2018-05-04T10:45:45.184Z,19.80
2018-05-04T10:48:12.259Z,18.50
2018-05-04T10:50:38.568Z,18.50
2018-05-04T10:53:04.911Z,17.50
2018-05-04T10:55:31.218Z,16.50
2018-05-04T10:57:58.228Z,18.50
2018-05-04T11:00:24.523Z,18.50
2018-05-04T11:02:50.857Z,20.20
2018-05-04T11:05:17.211Z,19.40
2018-05-04T11:07:43.502Z,20.10
2018-05-04T11:10:09.933Z,20.50
2018-05-04T11:12:36.289Z,18.40
2018-05-04T11:15:02.606Z,17.60
2018-05-04T11:17:29.012Z,19.90
2018-05-04T11:19:56.046Z,17.60
2018-05-04T11:22:22.339Z,17.70
2018-05-04T11:24:48.706Z,19.70
2018-05-04T11:27:15.047Z,20.60
2018-05-04T11:29:41.392Z,21.40
2018-05-04T11:32:07.684Z,19.90
2018-05-04T11:34:33.987Z,17.70
2018-05-04T11:37:00.290Z,17.90
2018-05-04T11:39:26.589Z,16.50
2018-05-04T11:41:52.959Z,15.80
2018-05-04T11:44:19.278Z,15.90
2018-05-04T11:46:46.667Z,14.40
2018-05-04T11:49:12.991Z,15.70
2018-05-04T11:51:39.297Z,17.60
2018-05-04T11:54:05.636Z,16.80
2018-05-04T11:56:31.934Z,15.80
2018-05-04T11:58:58.220Z,16.10
2018-05-04T12:01:24.507Z,15.60
2018-05-04T12:03:51.562Z,18.80
2018-05-04T12:06:17.875Z,18.80
2018-05-04T12:08:44.962Z,19.00
2018-05-04T12:11:11.267Z,18.70
2018-05-04T12:13:37.700Z,18.50
2018-05-04T12:16:04.012Z,18.40
2018-05-04T12:18:31.067Z,16.80
2018-05-04T12:20:57.346Z,16.20
2018-05-04T12:23:23.658Z,17.50
2018-05-04T12:25:50.001Z,16.60
2018-05-04T12:28:16.284Z,17.20
2018-05-04T12:30:42.562Z,17.20
2018-05-04T12:33:08.858Z,16.00
2018-05-04T12:35:35.195Z,17.40
2018-05-04T12:38:02.233Z,15.30
2018-05-04T12:40:29.310Z,17.00
2018-05-04T12:42:55.646Z,17.10
2018-05-04T12:45:22.006Z,17.00
2018-05-04T12:47:48.326Z,15.00
2018-05-04T12:50:14.674Z,17.10
2018-05-04T12:52:41.020Z,18.30
2018-05-04T12:55:07.404Z,18.40
2018-05-04T12:57:33.686Z,16.70
2018-05-04T13:00:00.023Z,15.50
2018-05-04T13:02:26.418Z,15.30
2018-05-04T13:04:52.718Z,15.50
2018-05-04T13:07:18.995Z,15.10
2018-05-04T13:09:45.277Z,15.50
2018-05-04T13:12:11.575Z,14.70
2018-05-04T13:14:38.574Z,14.60
2018-05-04T13:17:04.886Z,15.10
2018-05-04T13:19:31.182Z,16.80
2018-05-04T13:21:57.870Z,16.00
2018-05-04T13:24:24.178Z,16.10
2018-05-04T13:26:50.469Z,15.80
2018-05-04T13:29:16.750Z,17.00
2018-05-04T13:31:43.036Z,17.20
2018-05-04T13:34:09.307Z,15.60
2018-05-04T13:36:35.600Z,15.00
2018-05-04T13:39:01.921Z,14.10
2018-05-04T13:41:28.200Z,14.70
2018-05-04T13:43:55.155Z,15.20
2018-05-04T13:46:21.466Z,14.30
2018-05-04T13:48:47.755Z,14.90
2018-05-04T13:51:14.104Z,14.40
2018-05-04T13:53:40.395Z,16.70
2018-05-04T13:56:06.707Z,17.70
2018-05-04T13:58:33.100Z,16.70
2018-05-04T14:00:59.426Z,16.40
2018-05-04T14:03:25.803Z,16.80
2018-05-04T14:05:52.106Z,15.90
2018-05-04T14:08:19.136Z,14.70
2018-05-04T14:10:45.442Z,14.50
2018-05-04T14:13:11.755Z,14.90
2018-05-04T14:15:38.131Z,15.20
2018-05-04T14:18:06.016Z,15.10
2018-05-04T14:20:32.301Z,15.10
2018-05-04T14:22:58.604Z,16.60
2018-05-04T14:25:24.936Z,16.40
2018-05-04T14:27:51.319Z,15.20
2018-05-04T14:30:18.355Z,15.80
2018-05-04T14:32:45.424Z,16.10
2018-05-04T14:35:12.442Z,18.70
2018-05-04T14:37:38.759Z,18.70
2018-05-04T14:40:05.875Z,20.00
2018-05-04T14:42:32.191Z,20.00
2018-05-04T14:44:59.341Z,20.30
2018-05-04T14:47:26.367Z,21.10
2018-05-04T14:49:52.717Z,20.90
2018-05-04T14:52:19.090Z,20.60
2018-05-04T14:54:45.393Z,21.40
2018-05-04T14:57:11.727Z,21.80
2018-05-04T14:59:38.059Z,20.60
2018-05-04T15:02:05.215Z,21.00
2018-05-04T15:04:31.530Z,21.20
2018-05-04T15:06:57.794Z,21.60
2018-05-04T15:09:24.087Z,22.10
2018-05-04T15:11:51.208Z,22.50
2018-05-04T15:14:17.495Z,22.30
2018-05-04T15:16:43.817Z,22.40
2018-05-04T15:19:10.101Z,22.40
2018-05-04T15:21:36.386Z,21.60
2018-05-04T15:24:02.663Z,21.00
2018-05-04T15:26:28.989Z,21.00
2018-05-04T15:28:55.263Z,19.60
2018-05-04T15:31:21.596Z,19.70
2018-05-04T15:33:47.922Z,18.80
2018-05-04T15:36:14.226Z,17.90
2018-05-04T15:38:41.255Z,19.60
2018-05-04T15:41:07.519Z,19.50
2018-05-04T15:43:34.575Z,21.50
2018-05-04T15:46:00.889Z,21.30
2018-05-04T15:48:34.063Z,22.20
2018-05-04T15:51:06.582Z,22.20
2018-05-04T15:53:32.850Z,22.50
2018-05-04T15:55:59.133Z,22.70
2018-05-04T15:58:25.487Z,22.60
2018-05-04T16:00:51.771Z,22.70
2018-05-04T16:03:18.826Z,22.20
2018-05-04T16:05:45.888Z,22.50
2018-05-04T16:08:12.195Z,22.40
2018-05-04T16:10:38.494Z,22.70
2018-05-04T16:13:04.822Z,22.20
2018-05-04T16:15:31.110Z,22.30
2018-05-04T16:17:57.442Z,22.30
2018-05-04T16:20:23.810Z,22.80
2018-05-04T16:22:50.273Z,23.40
2018-05-04T16:25:17.439Z,24.10
2018-05-04T16:27:44.490Z,23.60
2018-05-04T16:30:11.547Z,23.60
2018-05-04T16:32:37.889Z,23.50
2018-05-04T16:35:04.921Z,23.40
2018-05-04T16:37:31.962Z,23.50
2018-05-04T16:39:59.025Z,23.20
2018-05-04T16:42:25.349Z,23.10
2018-05-04T16:44:51.738Z,23.10
2018-05-04T16:47:21.678Z,24.00
2018-05-04T16:49:47.966Z,23.70
2018-05-04T16:52:14.282Z,23.30
2018-05-04T16:54:40.627Z,23.40
2018-05-04T16:57:06.967Z,24.20
2018-05-04T16:59:33.322Z,24.00
2018-05-04T17:01:59.669Z,24.80
2018-05-04T17:04:25.947Z,24.60
2018-05-04T17:06:52.288Z,25.20
2018-05-04T17:09:19.412Z,24.90
2018-05-04T17:11:45.730Z,24.60
2018-05-04T17:14:12.074Z,25.10
2018-05-04T17:16:38.402Z,25.10
2018-05-04T17:19:04.781Z,24.90
2018-05-04T17:21:31.075Z,24.50
2018-05-04T17:23:57.386Z,25.10
2018-05-04T17:26:23.739Z,24.90
2018-05-04T17:28:50.022Z,25.10
2018-05-04T17:31:16.348Z,25.80
2018-05-04T17:33:42.646Z,24.90
2018-05-04T17:36:08.955Z,24.80
2018-05-04T17:38:35.245Z,24.80
2018-05-04T17:41:02.344Z,25.20
2018-05-04T17:43:28.664Z,24.70
2018-05-04T17:45:54.954Z,24.80
2018-05-04T17:48:21.310Z,25.00
2018-05-04T17:50:48.321Z,25.50
2018-05-04T17:53:14.659Z,25.30
2018-05-04T17:55:41.714Z,26.60
2018-05-04T17:58:08.746Z,26.80
2018-05-04T18:00:35.031Z,25.70
2018-05-04T18:03:01.339Z,26.00
2018-05-04T18:05:27.612Z,26.00
2018-05-04T18:07:53.922Z,25.90
2018-05-04T18:10:20.343Z,26.10
2018-05-04T18:12:46.755Z,26.20
2018-05-04T18:15:13.803Z,26.80
2018-05-04T18:17:40.875Z,27.00
2018-05-04T18:20:07.254Z,26.60
2018-05-04T18:22:33.558Z,26.80
2018-05-04T18:24:59.861Z,27.00
2018-05-04T18:27:26.251Z,27.70
2018-05-04T18:29:52.559Z,27.70
2018-05-04T18:32:18.883Z,27.60
2018-05-04T18:34:45.202Z,27.70
2018-05-04T18:37:11.584Z,28.00
2018-05-04T18:39:37.951Z,27.80
2018-05-04T18:42:04.296Z,27.90
2018-05-04T18:44:30.626Z,28.20
2018-05-04T18:46:56.922Z,28.70
2018-05-04T18:49:23.211Z,28.40
2018-05-04T18:51:49.506Z,29.10
2018-05-04T18:54:15.805Z,28.90
2018-05-04T18:56:42.094Z,28.80
2018-05-04T18:59:08.385Z,29.30
2018-05-04T19:01:35.430Z,30.00
2018-05-04T19:04:01.793Z,29.50
2018-05-04T19:06:28.109Z,29.60
2018-05-04T19:08:54.450Z,29.90
2018-05-04T19:11:20.786Z,30.30
2018-05-04T19:13:47.137Z,30.70
2018-05-04T19:16:13.476Z,30.70
2018-05-04T19:18:39.789Z,31.00
2018-05-04T19:21:06.118Z,31.40
2018-05-04T19:23:32.487Z,31.20
2018-05-04T19:25:59.065Z,31.60
2018-05-04T19:28:25.362Z,31.80
2018-05-04T19:30:51.650Z,32.50
2018-05-04T19:33:17.943Z,32.30
2018-05-04T19:35:44.951Z,34.20
2018-05-04T19:38:11.233Z,33.70
2018-05-04T19:40:37.524Z,33.40
2018-05-04T19:43:03.851Z,34.50
2018-05-04T19:45:30.128Z,34.50
2018-05-04T19:47:57.250Z,35.10
2018-05-04T19:50:24.262Z,35.60
2018-05-04T19:52:50.571Z,35.20
2018-05-04T19:55:16.880Z,35.50
2018-05-04T19:57:43.198Z,36.30
2018-05-04T20:00:10.223Z,36.70
2018-05-04T20:02:36.566Z,37.10
2018-05-04T20:05:03.586Z,37.10
2018-05-04T20:07:29.870Z,36.90
2018-05-04T20:09:56.178Z,36.90
2018-05-04T20:12:23.215Z,37.80
2018-05-04T20:14:49.576Z,37.70
2018-05-04T20:17:15.897Z,37.40
2018-05-04T20:19:42.974Z,38.60
2018-05-04T20:22:09.238Z,38.30
2018-05-04T20:24:35.546Z,38.30
2018-05-04T20:27:01.851Z,39.20
2018-05-04T20:29:28.163Z,39.10
2018-05-04T20:31:55.219Z,39.30
2018-05-04T20:34:22.243Z,40.80
2018-05-04T20:36:49.310Z,39.50
2018-05-04T20:39:16.487Z,40.00
2018-05-04T20:41:42.782Z,39.90
2018-05-04T20:44:09.889Z,40.20
2018-05-04T20:46:36.930Z,40.50
2018-05-04T20:49:03.281Z,40.30
2018-05-04T20:51:29.629Z,40.50
2018-05-04T20:53:56.662Z,41.50
2018-05-04T20:56:23.034Z,41.50
2018-05-04T20:58:49.393Z,40.80
2018-05-04T21:01:16.426Z,41.50
2018-05-04T21:03:42.734Z,41.70
2018-05-04T21:06:09.767Z,41.70
2018-05-04T21:08:36.076Z,41.40
2018-05-04T21:11:02.428Z,41.50
2018-05-04T21:13:28.743Z,41.70
2018-05-04T21:15:55.114Z,41.70
2018-05-04T21:18:22.359Z,42.00
2018-05-04T21:20:49.396Z,41.50
2018-05-04T21:23:15.702Z,41.50
2018-05-04T21:25:42.000Z,42.20
2018-05-04T21:28:08.355Z,41.60
2018-05-04T21:30:34.653Z,42.50
2018-05-04T21:33:01.051Z,42.50
2018-05-04T21:35:27.337Z,41.70
2018-05-04T21:37:53.615Z,42.00
2018-05-04T21:40:20.681Z,43.00
2018-05-04T21:42:47.052Z,42.10
2018-05-04T21:45:13.318Z,42.90
2018-05-04T21:47:39.653Z,42.40
2018-05-04T21:50:05.962Z,42.20
2018-05-04T21:52:32.303Z,42.80
2018-05-04T21:54:58.621Z,42.90
2018-05-04T21:57:24.953Z,42.50
2018-05-04T21:59:51.291Z,43.20
2018-05-04T22:02:17.570Z,42.90
2018-05-04T22:04:43.889Z,43.70
2018-05-04T22:07:10.196Z,43.90
2018-05-04T22:09:36.538Z,44.10
2018-05-04T22:12:04.298Z,44.00
2018-05-04T22:14:30.682Z,44.10
2018-05-04T22:16:57.019Z,43.80
2018-05-04T22:19:24.110Z,44.60
2018-05-04T22:21:51.210Z,44.10
2018-05-04T22:24:17.534Z,43.60
2018-05-04T22:26:43.814Z,44.00
2018-05-04T22:29:10.878Z,44.60
2018-05-04T22:31:37.886Z,44.70
2018-05-04T22:34:04.199Z,43.70
2018-05-04T22:36:30.600Z,43.90
2018-05-04T22:38:56.874Z,44.00
2018-05-04T22:41:23.235Z,44.50
2018-05-04T22:43:49.590Z,44.10
2018-05-04T22:46:16.627Z,45.10
2018-05-04T22:48:42.977Z,44.90
2018-05-04T22:51:09.346Z,45.30
2018-05-04T22:53:35.642Z,46.40
2018-05-04T22:56:01.987Z,47.10
2018-05-04T22:58:29.020Z,47.00
2018-05-04T23:00:55.303Z,47.60
2018-05-04T23:03:21.597Z,48.20
2018-05-04T23:05:47.935Z,48.50
2018-05-04T23:08:14.228Z,47.70
2018-05-04T23:10:40.536Z,48.50
2018-05-04T23:13:06.925Z,48.20
2018-05-04T23:15:33.210Z,47.90
2018-05-04T23:18:00.226Z,47.90
2018-05-04T23:20:26.545Z,47.40
2018-05-04T23:22:52.831Z,48.50
2018-05-04T23:25:19.109Z,48.50
2018-05-04T23:27:45.530Z,49.30
2018-05-04T23:30:11.925Z,49.10
2018-05-04T23:32:38.218Z,49.80
2018-05-04T23:35:05.314Z,51.70
2018-05-04T23:37:32.198Z,49.70
2018-05-04T23:39:59.743Z,49.90
2018-05-04T23:42:29.040Z,49.40
2018-05-04T23:44:55.302Z,50.30
2018-05-04T23:47:21.576Z,50.90
2018-05-04T23:49:47.882Z,50.80
2018-05-04T23:52:14.185Z,52.00
2018-05-04T23:54:40.588Z,51.50
2018-05-04T23:57:06.906Z,52.00
2018-05-04T23:59:33.850Z,51.20
